createdAt,value
2018-05-26T00:01:43.427Z,22.86
2018-05-26T00:04:09.760Z,22.84
2018-05-26T00:06:36.089Z,22.85
2018-05-26T00:09:02.408Z,22.88
2018-05-26T00:11:28.731Z,22.79
2018-05-26T00:13:55.058Z,22.81
2018-05-26T00:16:21.434Z,22.77
2018-05-26T00:18:47.789Z,22.81
2018-05-26T00:21:14.138Z,22.76
2018-05-26T00:23:40.481Z,22.81
2018-05-26T00:26:06.814Z,22.80
2018-05-26T00:28:33.169Z,22.71
2018-05-26T00:30:59.512Z,22.71
2018-05-26T00:33:25.861Z,22.78
2018-05-26T00:35:52.246Z,22.73
2018-05-26T00:38:18.610Z,22.68
2018-05-26T00:40:44.958Z,22.71
2018-05-26T00:43:11.274Z,22.71
2018-05-26T00:45:37.613Z,22.73
2018-05-26T00:48:03.945Z,22.71
2018-05-26T00:50:30.404Z,22.67
2018-05-26T00:52:56.720Z,22.72
2018-05-26T00:55:23.040Z,22.73
2018-05-26T00:57:49.362Z,22.68
2018-05-26T01:00:15.709Z,22.67
2018-05-26T01:02:42.042Z,22.72
2018-05-26T01:05:08.457Z,22.67
2018-05-26T01:07:34.793Z,22.64
2018-05-26T01:10:01.171Z,22.64
2018-05-26T01:12:27.520Z,22.63
2018-05-26T01:14:53.878Z,22.67
2018-05-26T01:17:20.210Z,22.70
2018-05-26T01:19:46.572Z,22.68
2018-05-26T01:22:12.903Z,22.64
2018-05-26T01:24:39.256Z,22.69
2018-05-26T01:27:05.578Z,22.63
2018-05-26T01:29:31.941Z,22.60
2018-05-26T01:31:58.319Z,22.62
2018-05-26T01:34:24.632Z,22.58
2018-05-26T01:36:51.019Z,22.55
2018-05-26T01:39:17.400Z,22.62
2018-05-26T01:41:43.772Z,22.55
2018-05-26T01:44:10.152Z,22.53
2018-05-26T01:46:36.540Z,22.54
2018-05-26T01:49:02.904Z,22.56
2018-05-26T01:51:29.273Z,22.51
2018-05-26T01:53:55.609Z,22.56
2018-05-26T01:56:21.965Z,22.57
2018-05-26T01:58:48.293Z,22.52
2018-05-26T02:01:14.668Z,22.49
2018-05-26T02:03:41.068Z,22.49
2018-05-26T02:06:07.400Z,22.57
2018-05-26T02:08:33.717Z,22.47
2018-05-26T02:11:00.049Z,22.44
2018-05-26T02:13:26.399Z,22.50
2018-05-26T02:15:52.784Z,22.50
2018-05-26T02:18:19.113Z,22.43
2018-05-26T02:20:45.448Z,22.46
2018-05-26T02:23:11.834Z,22.44
2018-05-26T02:25:38.165Z,22.50
2018-05-26T02:28:04.548Z,22.47
2018-05-26T02:30:30.879Z,22.40
2018-05-26T02:32:57.279Z,22.41
2018-05-26T02:35:23.607Z,22.41
2018-05-26T02:37:49.994Z,22.39
2018-05-26T02:40:16.376Z,22.42
2018-05-26T02:42:42.711Z,22.39
2018-05-26T02:45:09.032Z,22.48
2018-05-26T02:47:35.408Z,22.37
2018-05-26T02:50:01.801Z,22.47
2018-05-26T02:52:28.133Z,22.37
2018-05-26T02:54:54.502Z,22.41
2018-05-26T02:57:20.820Z,22.39
2018-05-26T02:59:47.185Z,22.35
2018-05-26T03:02:13.585Z,22.35
2018-05-26T03:04:39.904Z,22.37
2018-05-26T03:07:06.229Z,22.36
2018-05-26T03:09:32.650Z,22.34
2018-05-26T03:11:58.968Z,22.34
2018-05-26T03:14:25.338Z,22.31
2018-05-26T03:16:51.692Z,22.31
2018-05-26T03:19:18.087Z,22.43
2018-05-26T03:21:44.468Z,22.40
2018-05-26T03:24:10.842Z,22.40
2018-05-26T03:26:37.220Z,22.37
2018-05-26T03:29:03.545Z,22.37
2018-05-26T03:31:29.918Z,22.39
2018-05-26T03:33:56.331Z,22.41
2018-05-26T03:36:22.690Z,22.36
2018-05-26T03:38:49.025Z,22.37
2018-05-26T03:41:15.461Z,22.41
2018-05-26T03:43:41.865Z,22.42
2018-05-26T03:46:08.201Z,22.48
2018-05-26T03:48:34.531Z,22.49
2018-05-26T03:51:00.909Z,22.53
2018-05-26T03:53:27.243Z,22.55
2018-05-26T03:55:53.604Z,22.60
2018-05-26T03:58:19.934Z,22.67
2018-05-26T04:00:46.343Z,22.72
2018-05-26T04:03:12.674Z,22.76
2018-05-26T04:05:39.032Z,22.84
2018-05-26T04:08:05.435Z,22.84
2018-05-26T04:10:31.800Z,22.88
2018-05-26T04:12:58.210Z,22.91
2018-05-26T04:15:24.530Z,22.96
2018-05-26T04:17:50.865Z,22.98
2018-05-26T04:20:17.197Z,22.99
2018-05-26T04:22:43.605Z,22.99
2018-05-26T04:25:09.928Z,22.95
2018-05-26T04:27:36.449Z,22.97
2018-05-26T04:30:02.772Z,22.99
2018-05-26T04:32:29.144Z,22.99
2018-05-26T04:34:55.515Z,23.00
2018-05-26T04:37:21.856Z,23.02
2018-05-26T04:39:48.267Z,23.03
2018-05-26T04:42:14.591Z,23.08
2018-05-26T04:44:40.926Z,23.08
2018-05-26T04:47:07.297Z,23.11
2018-05-26T04:49:33.672Z,23.13
2018-05-26T04:52:00.049Z,23.16
2018-05-26T04:54:26.379Z,23.22
2018-05-26T04:56:52.733Z,23.23
2018-05-26T04:59:19.119Z,23.29
2018-05-26T05:01:45.485Z,23.31
2018-05-26T05:04:11.805Z,23.36
2018-05-26T05:06:38.133Z,23.40
2018-05-26T05:09:04.460Z,23.45
2018-05-26T05:11:30.872Z,23.47
2018-05-26T05:13:57.189Z,23.52
2018-05-26T05:16:23.568Z,23.55
2018-05-26T05:18:49.897Z,23.59
2018-05-26T05:21:16.384Z,23.62
2018-05-26T05:23:42.743Z,23.67
2018-05-26T05:26:09.098Z,23.71
2018-05-26T05:28:35.522Z,23.77
2018-05-26T05:31:01.882Z,23.80
2018-05-26T05:33:28.208Z,23.82
2018-05-26T05:35:54.531Z,23.87
2018-05-26T05:38:20.908Z,23.90
2018-05-26T05:40:47.252Z,23.95
2018-05-26T05:43:13.584Z,23.98
2018-05-26T05:45:39.910Z,24.01
2018-05-26T05:48:06.237Z,24.05
2018-05-26T05:50:32.643Z,24.10
2018-05-26T05:52:58.983Z,24.14
2018-05-26T05:55:25.351Z,24.15
2018-05-26T05:57:51.670Z,24.17
2018-05-26T06:00:18.036Z,24.23
2018-05-26T06:02:44.392Z,24.26
2018-05-26T06:05:10.758Z,24.29
2018-05-26T06:07:37.112Z,24.34
2018-05-26T06:10:03.483Z,24.36
2018-05-26T06:12:29.897Z,24.39
2018-05-26T06:14:56.267Z,24.44
2018-05-26T06:17:22.620Z,24.46
2018-05-26T06:19:49.008Z,24.49
2018-05-26T06:22:15.356Z,24.51
2018-05-26T06:24:41.729Z,24.56
2018-05-26T06:27:08.050Z,24.58
2018-05-26T06:29:34.382Z,24.59
2018-05-26T06:32:00.753Z,24.63
2018-05-26T06:34:27.141Z,24.66
2018-05-26T06:36:53.492Z,24.69
2018-05-26T06:39:19.821Z,24.72
2018-05-26T06:41:46.142Z,24.73
2018-05-26T06:44:12.537Z,24.77
2018-05-26T06:46:38.857Z,24.78
2018-05-26T06:49:05.231Z,24.82
2018-05-26T06:51:31.645Z,24.84
2018-05-26T06:53:58.017Z,24.84
2018-05-26T06:56:24.337Z,24.87
2018-05-26T06:58:50.750Z,24.88
2018-05-26T07:01:17.121Z,24.89
2018-05-26T07:03:43.456Z,24.91
2018-05-26T07:06:09.786Z,24.94
2018-05-26T07:08:36.094Z,24.97
2018-05-26T07:11:02.457Z,24.99
2018-05-26T07:13:28.785Z,25.00
2018-05-26T07:15:55.156Z,25.01
2018-05-26T07:18:21.472Z,25.03
2018-05-26T07:20:47.870Z,25.05
2018-05-26T07:23:14.202Z,25.06
2018-05-26T07:25:40.533Z,25.05
2018-05-26T07:28:06.853Z,25.08
2018-05-26T07:30:33.199Z,25.10
2018-05-26T07:32:59.614Z,25.09
2018-05-26T07:35:25.953Z,25.13
2018-05-26T07:37:52.352Z,25.14
2018-05-26T07:40:18.727Z,25.17
2018-05-26T07:42:45.058Z,25.18
2018-05-26T07:45:11.432Z,25.19
2018-05-26T07:47:37.754Z,25.19
2018-05-26T07:50:04.069Z,25.20
2018-05-26T07:52:30.398Z,25.21
2018-05-26T07:54:56.781Z,25.22
2018-05-26T07:57:23.111Z,25.24
2018-05-26T07:59:49.509Z,25.23
2018-05-26T08:02:15.858Z,25.24
2018-05-26T08:04:42.211Z,25.27
2018-05-26T08:07:08.668Z,25.25
2018-05-26T08:09:35.499Z,25.25
2018-05-26T08:12:01.892Z,25.27
2018-05-26T08:14:28.211Z,25.28
2018-05-26T08:16:54.569Z,25.28
2018-05-26T08:19:20.900Z,25.27
2018-05-26T08:21:47.236Z,25.30
2018-05-26T08:24:13.579Z,25.31
2018-05-26T08:26:39.916Z,25.30
2018-05-26T08:29:06.237Z,25.30
2018-05-26T08:31:32.599Z,25.30
2018-05-26T08:33:58.926Z,25.32
2018-05-26T08:36:25.291Z,25.30
2018-05-26T08:38:51.631Z,25.33
2018-05-26T08:41:17.967Z,25.33
2018-05-26T08:43:44.325Z,25.34
2018-05-26T08:46:10.685Z,25.35
2018-05-26T08:48:37.048Z,25.35
2018-05-26T08:51:03.399Z,25.33
2018-05-26T08:53:29.770Z,25.34
2018-05-26T08:55:56.145Z,25.34
2018-05-26T08:58:22.477Z,25.36
2018-05-26T09:00:48.877Z,25.34
2018-05-26T09:03:15.196Z,25.34
2018-05-26T09:05:41.597Z,25.36
2018-05-26T09:08:07.981Z,25.37
2018-05-26T09:10:34.301Z,25.35
2018-05-26T09:13:00.748Z,25.36
2018-05-26T09:15:27.082Z,25.36
2018-05-26T09:17:53.485Z,25.38
2018-05-26T09:20:19.837Z,25.36
2018-05-26T09:22:46.224Z,25.37
2018-05-26T09:25:12.639Z,25.39
2018-05-26T09:27:39.086Z,25.38
2018-05-26T09:30:05.469Z,25.40
2018-05-26T09:32:31.827Z,25.38
2018-05-26T09:34:58.229Z,25.38
2018-05-26T09:37:24.643Z,25.39
2018-05-26T09:39:51.028Z,25.40
2018-05-26T09:42:17.425Z,25.40
2018-05-26T09:44:43.903Z,25.43
2018-05-26T09:47:10.322Z,25.39
2018-05-26T09:49:36.736Z,25.40
2018-05-26T09:52:03.135Z,25.43
2018-05-26T09:54:32.780Z,25.42
2018-05-26T09:56:59.149Z,25.43
2018-05-26T09:59:25.514Z,25.44
2018-05-26T10:01:51.822Z,25.44
2018-05-26T10:04:18.228Z,25.44
2018-05-26T10:06:44.775Z,25.45
2018-05-26T10:09:11.151Z,25.45
2018-05-26T10:11:37.574Z,25.44
2018-05-26T10:14:04.000Z,25.45
2018-05-26T10:16:30.484Z,25.45
2018-05-26T10:18:56.990Z,25.46
2018-05-26T10:21:23.305Z,25.45
2018-05-26T10:23:49.701Z,25.46
2018-05-26T10:26:16.104Z,25.45
2018-05-26T10:28:42.497Z,25.46
2018-05-26T10:31:08.856Z,25.45
2018-05-26T10:33:35.237Z,25.47
2018-05-26T10:36:01.667Z,25.45
2018-05-26T10:38:28.066Z,25.47
2018-05-26T10:40:54.536Z,25.44
2018-05-26T10:43:20.944Z,25.44
2018-05-26T10:45:47.326Z,25.45
2018-05-26T10:48:13.753Z,25.44
2018-05-26T10:50:40.133Z,25.44
2018-05-26T10:53:06.470Z,25.44
2018-05-26T10:55:32.869Z,25.45
2018-05-26T10:57:59.240Z,25.43
2018-05-26T11:00:25.612Z,25.44
2018-05-26T11:02:52.010Z,25.42
2018-05-26T11:05:18.329Z,25.42
2018-05-26T11:07:44.846Z,25.40
2018-05-26T11:10:11.206Z,25.39
2018-05-26T11:12:37.544Z,25.40
2018-05-26T11:15:05.042Z,25.42
2018-05-26T11:17:31.604Z,25.42
2018-05-26T11:19:58.084Z,25.39
2018-05-26T11:22:24.425Z,25.40
2018-05-26T11:24:50.841Z,25.43
2018-05-26T11:27:17.207Z,25.42
2018-05-26T11:29:43.687Z,25.40
2018-05-26T11:32:10.077Z,25.43
2018-05-26T11:34:36.443Z,25.39
2018-05-26T11:37:02.964Z,25.42
2018-05-26T11:39:29.294Z,25.40
2018-05-26T11:41:55.626Z,25.40
2018-05-26T11:44:21.948Z,25.39
2018-05-26T11:46:48.341Z,25.37
2018-05-26T11:49:14.688Z,25.37
2018-05-26T11:51:41.072Z,25.38
2018-05-26T11:54:07.437Z,25.36
2018-05-26T11:56:33.770Z,25.36
2018-05-26T11:59:00.160Z,25.37
2018-05-26T12:01:26.504Z,25.36
2018-05-26T12:03:52.892Z,25.36
2018-05-26T12:06:19.234Z,25.38
2018-05-26T12:08:45.574Z,25.37
2018-05-26T12:11:11.989Z,25.36
2018-05-26T12:13:38.407Z,25.36
2018-05-26T12:16:04.744Z,25.37
2018-05-26T12:18:31.087Z,25.37
2018-05-26T12:20:57.458Z,25.37
2018-05-26T12:23:23.862Z,25.37
2018-05-26T12:25:50.253Z,25.36
2018-05-26T12:28:16.571Z,25.37
2018-05-26T12:30:42.904Z,25.37
2018-05-26T12:33:09.235Z,25.35
2018-05-26T12:35:35.614Z,25.35
2018-05-26T12:38:02.019Z,25.38
2018-05-26T12:40:28.356Z,25.38
2018-05-26T12:42:54.722Z,25.36
2018-05-26T12:45:21.046Z,25.37
2018-05-26T12:47:47.378Z,25.37
2018-05-26T12:50:13.789Z,25.37
2018-05-26T12:52:40.127Z,25.36
2018-05-26T12:55:06.517Z,25.35
2018-05-26T12:57:32.885Z,25.34
2018-05-26T12:59:59.224Z,25.34
2018-05-26T13:02:25.665Z,25.36
2018-05-26T13:04:51.997Z,25.35
2018-05-26T13:07:18.360Z,25.36
2018-05-26T13:09:44.744Z,25.34
2018-05-26T13:12:11.119Z,25.36
2018-05-26T13:14:37.480Z,25.35
2018-05-26T13:17:03.823Z,25.36
2018-05-26T13:19:30.177Z,25.35
2018-05-26T13:21:56.521Z,25.35
2018-05-26T13:24:22.864Z,25.34
2018-05-26T13:26:49.284Z,25.34
2018-05-26T13:29:15.597Z,25.33
2018-05-26T13:31:41.992Z,25.32
2018-05-26T13:34:08.386Z,25.33
2018-05-26T13:36:34.760Z,25.33
2018-05-26T13:39:01.108Z,25.33
2018-05-26T13:41:27.509Z,25.32
2018-05-26T13:43:53.934Z,25.33
2018-05-26T13:46:20.299Z,25.32
2018-05-26T13:48:46.641Z,25.31
2018-05-26T13:51:12.996Z,25.32
2018-05-26T13:53:39.417Z,25.33
2018-05-26T13:56:05.731Z,25.32
2018-05-26T13:58:32.205Z,25.33
2018-05-26T14:00:58.570Z,25.33
2018-05-26T14:03:24.947Z,25.31
2018-05-26T14:05:51.292Z,25.30
2018-05-26T14:08:17.701Z,25.30
2018-05-26T14:10:44.079Z,25.30
2018-05-26T14:13:10.442Z,25.29
2018-05-26T14:15:36.833Z,25.30
2018-05-26T14:18:03.198Z,25.30
2018-05-26T14:20:29.596Z,25.28
2018-05-26T14:22:55.931Z,25.30
2018-05-26T14:25:22.365Z,25.28
2018-05-26T14:27:48.705Z,25.28
2018-05-26T14:30:15.178Z,25.29
2018-05-26T14:32:41.528Z,25.27
2018-05-26T14:35:07.934Z,25.28
2018-05-26T14:37:34.320Z,25.27
2018-05-26T14:40:00.728Z,25.28
2018-05-26T14:42:27.104Z,25.28
2018-05-26T14:44:53.536Z,25.27
2018-05-26T14:47:19.932Z,25.27
2018-05-26T14:49:46.489Z,25.25
2018-05-26T14:52:12.800Z,25.28
2018-05-26T14:54:39.144Z,25.27
2018-05-26T14:57:05.514Z,25.28
2018-05-26T14:59:31.879Z,25.27
2018-05-26T15:01:58.216Z,25.27
2018-05-26T15:04:24.587Z,25.25
2018-05-26T15:06:50.974Z,25.25
2018-05-26T15:09:17.388Z,25.24
2018-05-26T15:11:43.838Z,25.24
2018-05-26T15:14:10.200Z,25.24
2018-05-26T15:16:36.651Z,25.24
2018-05-26T15:19:03.048Z,25.25
2018-05-26T15:21:29.430Z,25.25
2018-05-26T15:23:55.821Z,25.27
2018-05-26T15:26:22.235Z,25.28
2018-05-26T15:28:48.602Z,25.27
2018-05-26T15:31:14.963Z,25.28
2018-05-26T15:33:41.313Z,25.27
2018-05-26T15:36:07.734Z,25.25
2018-05-26T15:38:34.133Z,25.25
2018-05-26T15:41:00.502Z,25.27
2018-05-26T15:43:26.883Z,25.27
2018-05-26T15:45:53.272Z,25.28
2018-05-26T15:48:19.615Z,25.28
2018-05-26T15:50:46.068Z,25.24
2018-05-26T15:53:12.405Z,25.25
2018-05-26T15:55:38.804Z,25.27
2018-05-26T15:58:05.136Z,25.27
2018-05-26T16:00:31.652Z,25.27
2018-05-26T16:02:58.239Z,25.25
2018-05-26T16:05:24.613Z,25.27
2018-05-26T16:07:50.938Z,25.27
2018-05-26T16:10:17.275Z,25.27
2018-05-26T16:12:43.826Z,25.28
2018-05-26T16:15:10.272Z,25.24
2018-05-26T16:17:36.771Z,25.27
2018-05-26T16:20:03.107Z,25.29
2018-05-26T16:22:29.468Z,25.25
2018-05-26T16:24:55.872Z,25.27
2018-05-26T16:27:22.223Z,25.27
2018-05-26T16:29:48.619Z,25.31
2018-05-26T16:32:15.061Z,25.32
2018-05-26T16:34:41.386Z,25.27
2018-05-26T16:37:07.804Z,25.24
2018-05-26T16:39:34.267Z,25.25
2018-05-26T16:42:00.608Z,25.22
2018-05-26T16:44:27.026Z,25.24
2018-05-26T16:46:53.471Z,25.25
2018-05-26T16:49:19.880Z,25.21
2018-05-26T16:51:46.233Z,25.21
2018-05-26T16:54:12.562Z,25.19
2018-05-26T16:56:38.967Z,25.17
2018-05-26T16:59:05.345Z,25.16
2018-05-26T17:01:31.818Z,25.15
2018-05-26T17:03:58.260Z,25.13
2018-05-26T17:06:24.619Z,25.10
2018-05-26T17:08:50.964Z,25.07
2018-05-26T17:11:17.353Z,25.13
2018-05-26T17:13:43.689Z,25.09
2018-05-26T17:16:10.062Z,25.09
2018-05-26T17:18:36.408Z,25.07
2018-05-26T17:21:02.745Z,25.08
2018-05-26T17:23:29.107Z,25.07
2018-05-26T17:25:55.486Z,25.09
2018-05-26T17:28:21.889Z,25.09
2018-05-26T17:30:48.244Z,25.04
2018-05-26T17:33:14.669Z,25.04
2018-05-26T17:35:41.073Z,25.02
2018-05-26T17:38:07.453Z,25.01
2018-05-26T17:40:33.792Z,25.00
2018-05-26T17:43:00.197Z,25.02
2018-05-26T17:45:26.542Z,24.99
2018-05-26T17:47:52.946Z,24.93
2018-05-26T17:50:19.315Z,24.98
2018-05-26T17:52:45.729Z,24.97
2018-05-26T17:55:12.145Z,24.95
2018-05-26T17:57:38.551Z,24.93
2018-05-26T18:00:04.957Z,24.93
2018-05-26T18:02:31.362Z,24.91
2018-05-26T18:04:57.795Z,24.91
2018-05-26T18:07:24.151Z,24.92
2018-05-26T18:09:50.522Z,24.85
2018-05-26T18:12:16.888Z,24.87
2018-05-26T18:14:43.377Z,24.84
2018-05-26T18:17:09.785Z,24.84
2018-05-26T18:19:36.196Z,24.86
2018-05-26T18:22:02.538Z,24.85
2018-05-26T18:24:28.919Z,24.83
2018-05-26T18:26:55.288Z,24.83
2018-05-26T18:29:21.659Z,24.80
2018-05-26T18:31:48.178Z,24.77
2018-05-26T18:34:14.542Z,24.78
2018-05-26T18:36:40.904Z,24.77
2018-05-26T18:39:07.262Z,24.78
2018-05-26T18:41:33.686Z,24.77
2018-05-26T18:44:01.568Z,24.77
2018-05-26T18:46:28.175Z,24.77
2018-05-26T18:48:54.586Z,24.76
2018-05-26T18:51:20.987Z,24.80
2018-05-26T18:53:47.355Z,24.76
2018-05-26T18:56:13.825Z,24.77
2018-05-26T18:58:40.187Z,24.72
2018-05-26T19:01:06.524Z,24.70
2018-05-26T19:03:32.884Z,24.72
2018-05-26T19:05:59.231Z,24.72
2018-05-26T19:08:25.596Z,24.68
2018-05-26T19:10:52.035Z,24.69
2018-05-26T19:13:18.367Z,24.65
2018-05-26T19:15:44.695Z,24.68
2018-05-26T19:18:11.016Z,24.62
2018-05-26T19:20:37.413Z,24.68
2018-05-26T19:23:03.740Z,24.66
2018-05-26T19:25:30.200Z,24.59
2018-05-26T19:27:56.555Z,24.57
2018-05-26T19:30:22.883Z,24.62
2018-05-26T19:32:49.204Z,24.60
2018-05-26T19:35:15.516Z,24.53
2018-05-26T19:37:41.859Z,24.55
2018-05-26T19:40:08.975Z,24.59
2018-05-26T19:42:35.374Z,24.50
2018-05-26T19:45:01.965Z,24.51
2018-05-26T19:47:28.324Z,24.55
2018-05-26T19:49:54.684Z,24.49
2018-05-26T19:52:21.028Z,24.47
2018-05-26T19:54:47.361Z,24.50
2018-05-26T19:57:13.702Z,24.48
2018-05-26T19:59:40.072Z,24.45
2018-05-26T20:02:06.452Z,24.47
2018-05-26T20:04:32.788Z,24.47
2018-05-26T20:06:59.121Z,24.45
2018-05-26T20:09:25.494Z,24.46
2018-05-26T20:11:51.824Z,24.43
2018-05-26T20:14:18.208Z,24.43
2018-05-26T20:16:44.535Z,24.43
2018-05-26T20:19:10.892Z,24.39
2018-05-26T20:21:37.275Z,24.40
2018-05-26T20:24:03.606Z,24.38
2018-05-26T20:26:29.959Z,24.36
2018-05-26T20:28:56.369Z,24.35
2018-05-26T20:31:22.704Z,24.36
2018-05-26T20:33:49.064Z,24.35
2018-05-26T20:36:15.408Z,24.32
2018-05-26T20:38:41.771Z,24.30
2018-05-26T20:41:08.122Z,24.31
2018-05-26T20:43:34.575Z,24.31
2018-05-26T20:46:01.052Z,24.28
2018-05-26T20:48:27.593Z,24.27
2018-05-26T20:50:53.932Z,24.31
2018-05-26T20:53:20.318Z,24.27
2018-05-26T20:55:46.766Z,24.27
2018-05-26T20:58:13.165Z,24.25
2018-05-26T21:00:39.531Z,24.28
2018-05-26T21:03:05.878Z,24.27
2018-05-26T21:05:32.426Z,24.23
2018-05-26T21:07:58.848Z,24.24
2018-05-26T21:10:25.222Z,24.21
2018-05-26T21:12:51.611Z,24.19
2018-05-26T21:15:18.028Z,24.21
2018-05-26T21:17:44.364Z,24.23
2018-05-26T21:20:10.685Z,24.18
2018-05-26T21:22:37.008Z,24.18
2018-05-26T21:25:03.344Z,24.19
2018-05-26T21:27:29.656Z,24.16
2018-05-26T21:29:55.985Z,24.17
2018-05-26T21:32:22.321Z,24.14
2018-05-26T21:34:48.632Z,24.12
2018-05-26T21:37:14.953Z,24.14
2018-05-26T21:39:41.285Z,24.15
2018-05-26T21:42:07.693Z,24.09
2018-05-26T21:44:34.009Z,24.11
2018-05-26T21:47:00.334Z,24.06
2018-05-26T21:49:26.667Z,24.10
2018-05-26T21:51:52.984Z,24.08
2018-05-26T21:54:19.371Z,24.09
2018-05-26T21:56:45.812Z,24.10
2018-05-26T21:59:12.131Z,24.05
2018-05-26T22:01:38.489Z,24.04
2018-05-26T22:04:04.856Z,24.09
2018-05-26T22:06:31.196Z,24.04
2018-05-26T22:08:57.617Z,23.98
2018-05-26T22:11:23.938Z,24.00
2018-05-26T22:13:50.270Z,24.02
2018-05-26T22:16:16.649Z,23.99
2018-05-26T22:18:42.971Z,23.98
2018-05-26T22:21:09.310Z,24.01
2018-05-26T22:23:35.702Z,23.98
2018-05-26T22:26:02.061Z,23.90
2018-05-26T22:28:28.424Z,23.92
2018-05-26T22:30:54.762Z,23.96
2018-05-26T22:33:21.149Z,23.91
2018-05-26T22:35:47.476Z,23.92
2018-05-26T22:38:13.892Z,23.94
2018-05-26T22:40:40.293Z,23.87
2018-05-26T22:43:07.097Z,23.90
2018-05-26T22:45:33.416Z,23.91
2018-05-26T22:47:59.809Z,23.88
2018-05-26T22:50:26.133Z,23.85
2018-05-26T22:52:52.504Z,23.80
2018-05-26T22:55:18.972Z,23.85
2018-05-26T22:57:45.357Z,23.79
2018-05-26T23:00:11.734Z,23.85
2018-05-26T23:02:38.096Z,23.86
2018-05-26T23:05:04.450Z,23.84
2018-05-26T23:07:30.829Z,23.79
2018-05-26T23:09:57.189Z,23.82
2018-05-26T23:12:23.542Z,23.77
2018-05-26T23:14:49.989Z,23.82
2018-05-26T23:17:16.315Z,23.79
2018-05-26T23:19:42.695Z,23.81
2018-05-26T23:22:09.075Z,23.80
2018-05-26T23:24:35.475Z,23.79
2018-05-26T23:27:01.797Z,23.75
2018-05-26T23:29:28.153Z,23.76
2018-05-26T23:31:54.543Z,23.72
2018-05-26T23:34:20.864Z,23.71
2018-05-26T23:36:47.280Z,23.75
2018-05-26T23:39:13.689Z,23.69
2018-05-26T23:41:40.044Z,23.69
2018-05-26T23:44:06.381Z,23.71
2018-05-26T23:46:32.773Z,23.71
2018-05-26T23:48:59.109Z,23.70
2018-05-26T23:51:25.494Z,23.68
2018-05-26T23:53:51.866Z,23.73
2018-05-26T23:56:18.188Z,23.68
2018-05-26T23:58:44.596Z,23.62
